sensor_id;sensor_type;location;lat;lon;timestamp;P1;durP1;ratioP1;P2;durP2;ratioP2
61200;SDS011;47065;52.898;6.992;2024-01-30T00:02:21;35.30;;;17.75;;
61200;SDS011;47065;52.898;6.992;2024-01-30T00:04:46;28.67;;;16.88;;
61200;SDS011;47065;52.898;6.992;2024-01-30T00:07:12;28.30;;;16.50;;
61200;SDS011;47065;52.898;6.992;2024-01-30T00:09:38;26.02;;;16.65;;
61200;SDS011;47065;52.898;6.992;2024-01-30T00:12:07;29.92;;;16.95;;
61200;SDS011;47065;52.898;6.992;2024-01-30T00:14:32;27.17;;;17.45;;
61200;SDS011;47065;52.898;6.992;2024-01-30T00:16:58;27.42;;;16.52;;
61200;SDS011;47065;52.898;6.992;2024-01-30T00:19:23;28.35;;;16.70;;
61200;SDS011;47065;52.898;6.992;2024-01-30T00:21:49;30.27;;;17.75;;
61200;SDS011;47065;52.898;6.992;2024-01-30T00:24:15;23.65;;;15.43;;
61200;SDS011;47065;52.898;6.992;2024-01-30T00:26:40;22.90;;;15.43;;
61200;SDS011;47065;52.898;6.992;2024-01-30T00:29:06;26.63;;;16.52;;
61200;SDS011;47065;52.898;6.992;2024-01-30T00:31:32;26.85;;;16.23;;
61200;SDS011;47065;52.898;6.992;2024-01-30T00:33:57;23.88;;;15.38;;
61200;SDS011;47065;52.898;6.992;2024-01-30T00:36:23;19.98;;;14.00;;
61200;SDS011;47065;52.898;6.992;2024-01-30T00:38:49;22.08;;;14.25;;
61200;SDS011;47065;52.898;6.992;2024-01-30T00:41:15;23.88;;;15.77;;
61200;SDS011;47065;52.898;6.992;2024-01-30T00:43:42;26.10;;;15.13;;
61200;SDS011;47065;52.898;6.992;2024-01-30T00:46:08;20.80;;;14.95;;
61200;SDS011;47065;52.898;6.992;2024-01-30T00:48:34;22.50;;;15.43;;
61200;SDS011;47065;52.898;6.992;2024-01-30T00:50:59;25.55;;;16.20;;
61200;SDS011;47065;52.898;6.992;2024-01-30T00:53:25;25.60;;;14.63;;
61200;SDS011;47065;52.898;6.992;2024-01-30T00:55:51;19.73;;;14.15;;
61200;SDS011;47065;52.898;6.992;2024-01-30T00:58:17;22.15;;;13.40;;
61200;SDS011;47065;52.898;6.992;2024-01-30T01:00:44;18.95;;;13.20;;
61200;SDS011;47065;52.898;6.992;2024-01-30T01:03:10;26.20;;;14.20;;
61200;SDS011;47065;52.898;6.992;2024-01-30T01:05:36;19.35;;;13.88;;
61200;SDS011;47065;52.898;6.992;2024-01-30T01:08:01;22.17;;;13.38;;
61200;SDS011;47065;52.898;6.992;2024-01-30T01:10:27;21.08;;;13.40;;
61200;SDS011;47065;52.898;6.992;2024-01-30T01:12:53;21.58;;;14.20;;
61200;SDS011;47065;52.898;6.992;2024-01-30T01:15:18;24.45;;;13.73;;
61200;SDS011;47065;52.898;6.992;2024-01-30T01:17:44;23.70;;;14.15;;
61200;SDS011;47065;52.898;6.992;2024-01-30T01:20:11;20.95;;;14.35;;
61200;SDS011;47065;52.898;6.992;2024-01-30T01:22:37;24.13;;;14.60;;
61200;SDS011;47065;52.898;6.992;2024-01-30T01:25:04;24.70;;;15.70;;
61200;SDS011;47065;52.898;6.992;2024-01-30T01:27:32;28.30;;;16.35;;
61200;SDS011;47065;52.898;6.992;2024-01-30T01:29:59;26.23;;;15.25;;
61200;SDS011;47065;52.898;6.992;2024-01-30T01:32:25;27.08;;;15.40;;
61200;SDS011;47065;52.898;6.992;2024-01-30T01:34:51;20.10;;;14.40;;
61200;SDS011;47065;52.898;6.992;2024-01-30T01:37:17;21.80;;;14.60;;
61200;SDS011;47065;52.898;6.992;2024-01-30T01:39:43;23.05;;;15.80;;
61200;SDS011;47065;52.898;6.992;2024-01-30T01:42:08;23.60;;;15.73;;
61200;SDS011;47065;52.898;6.992;2024-01-30T01:44:34;24.08;;;15.85;;
61200;SDS011;47065;52.898;6.992;2024-01-30T01:47:00;21.35;;;14.27;;
61200;SDS011;47065;52.898;6.992;2024-01-30T01:49:26;26.80;;;15.73;;
61200;SDS011;47065;52.898;6.992;2024-01-30T01:51:53;24.27;;;16.33;;
61200;SDS011;47065;52.898;6.992;2024-01-30T01:54:21;29.42;;;17.70;;
61200;SDS011;47065;52.898;6.992;2024-01-30T01:56:48;29.85;;;16.13;;
61200;SDS011;47065;52.898;6.992;2024-01-30T01:59:14;24.95;;;16.42;;
61200;SDS011;47065;52.898;6.992;2024-01-30T02:01:40;30.02;;;19.25;;
61200;SDS011;47065;52.898;6.992;2024-01-30T02:04:07;26.90;;;16.40;;
61200;SDS011;47065;52.898;6.992;2024-01-30T02:06:33;27.38;;;17.38;;
61200;SDS011;47065;52.898;6.992;2024-01-30T02:08:59;25.48;;;16.85;;
61200;SDS011;47065;52.898;6.992;2024-01-30T02:11:25;24.25;;;16.50;;
61200;SDS011;47065;52.898;6.992;2024-01-30T02:13:51;25.25;;;16.33;;
61200;SDS011;47065;52.898;6.992;2024-01-30T02:16:17;22.33;;;15.32;;
61200;SDS011;47065;52.898;6.992;2024-01-30T02:18:43;23.65;;;15.13;;
61200;SDS011;47065;52.898;6.992;2024-01-30T02:21:10;25.55;;;16.15;;
61200;SDS011;47065;52.898;6.992;2024-01-30T02:23:36;30.48;;;17.98;;
61200;SDS011;47065;52.898;6.992;2024-01-30T02:26:02;24.00;;;15.65;;
61200;SDS011;47065;52.898;6.992;2024-01-30T02:28:28;28.38;;;16.73;;
61200;SDS011;47065;52.898;6.992;2024-01-30T02:30:54;26.40;;;17.45;;
61200;SDS011;47065;52.898;6.992;2024-01-30T02:33:19;21.75;;;15.63;;
61200;SDS011;47065;52.898;6.992;2024-01-30T02:35:47;20.75;;;16.25;;
61200;SDS011;47065;52.898;6.992;2024-01-30T02:38:13;25.80;;;17.70;;
61200;SDS011;47065;52.898;6.992;2024-01-30T02:40:38;27.88;;;16.35;;
61200;SDS011;47065;52.898;6.992;2024-01-30T02:43:04;22.58;;;15.80;;
61200;SDS011;47065;52.898;6.992;2024-01-30T02:45:30;29.38;;;17.08;;
61200;SDS011;47065;52.898;6.992;2024-01-30T02:47:56;28.58;;;16.83;;
61200;SDS011;47065;52.898;6.992;2024-01-30T02:50:21;26.55;;;17.80;;
61200;SDS011;47065;52.898;6.992;2024-01-30T02:52:47;24.95;;;16.10;;
61200;SDS011;47065;52.898;6.992;2024-01-30T02:55:12;25.17;;;17.17;;
61200;SDS011;47065;52.898;6.992;2024-01-30T02:57:38;29.75;;;17.17;;
61200;SDS011;47065;52.898;6.992;2024-01-30T03:00:05;25.92;;;17.10;;
61200;SDS011;47065;52.898;6.992;2024-01-30T03:02:33;25.80;;;16.95;;
61200;SDS011;47065;52.898;6.992;2024-01-30T03:04:59;24.00;;;17.25;;
61200;SDS011;47065;52.898;6.992;2024-01-30T03:07:25;24.35;;;15.90;;
61200;SDS011;47065;52.898;6.992;2024-01-30T03:09:51;26.35;;;16.55;;
61200;SDS011;47065;52.898;6.992;2024-01-30T03:12:16;25.42;;;16.90;;
61200;SDS011;47065;52.898;6.992;2024-01-30T03:14:44;32.22;;;17.45;;
61200;SDS011;47065;52.898;6.992;2024-01-30T03:17:10;29.40;;;17.20;;
61200;SDS011;47065;52.898;6.992;2024-01-30T03:19:36;28.67;;;16.65;;
61200;SDS011;47065;52.898;6.992;2024-01-30T03:22:01;26.48;;;16.27;;
61200;SDS011;47065;52.898;6.992;2024-01-30T03:24:27;23.45;;;16.48;;
61200;SDS011;47065;52.898;6.992;2024-01-30T03:26:53;27.15;;;16.88;;
61200;SDS011;47065;52.898;6.992;2024-01-30T03:29:18;25.33;;;16.02;;
61200;SDS011;47065;52.898;6.992;2024-01-30T03:31:44;24.60;;;16.17;;
61200;SDS011;47065;52.898;6.992;2024-01-30T03:34:09;24.17;;;16.27;;
61200;SDS011;47065;52.898;6.992;2024-01-30T03:36:35;23.38;;;15.40;;
61200;SDS011;47065;52.898;6.992;2024-01-30T03:39:01;27.23;;;18.02;;
61200;SDS011;47065;52.898;6.992;2024-01-30T03:41:27;24.98;;;17.15;;
61200;SDS011;47065;52.898;6.992;2024-01-30T03:43:52;32.97;;;19.38;;
61200;SDS011;47065;52.898;6.992;2024-01-30T03:46:18;26.92;;;17.25;;
61200;SDS011;47065;52.898;6.992;2024-01-30T03:48:44;28.42;;;16.67;;
61200;SDS011;47065;52.898;6.992;2024-01-30T03:51:11;28.38;;;18.45;;
61200;SDS011;47065;52.898;6.992;2024-01-30T03:53:43;24.23;;;17.02;;
61200;SDS011;47065;52.898;6.992;2024-01-30T03:56:11;33.40;;;17.67;;
61200;SDS011;47065;52.898;6.992;2024-01-30T03:58:38;27.85;;;16.90;;
61200;SDS011;47065;52.898;6.992;2024-01-30T04:01:04;24.60;;;17.65;;
61200;SDS011;47065;52.898;6.992;2024-01-30T04:03:30;25.15;;;17.67;;
61200;SDS011;47065;52.898;6.992;2024-01-30T04:05:56;24.67;;;17.10;;
61200;SDS011;47065;52.898;6.992;2024-01-30T04:08:21;25.83;;;18.00;;
61200;SDS011;47065;52.898;6.992;2024-01-30T04:10:47;32.00;;;17.40;;
61200;SDS011;47065;52.898;6.992;2024-01-30T04:13:13;24.77;;;16.92;;
61200;SDS011;47065;52.898;6.992;2024-01-30T04:15:39;25.38;;;15.90;;
61200;SDS011;47065;52.898;6.992;2024-01-30T04:18:05;23.10;;;16.38;;
61200;SDS011;47065;52.898;6.992;2024-01-30T04:20:31;26.58;;;16.63;;
61200;SDS011;47065;52.898;6.992;2024-01-30T04:22:56;31.88;;;18.65;;
61200;SDS011;47065;52.898;6.992;2024-01-30T04:25:22;32.08;;;18.67;;
61200;SDS011;47065;52.898;6.992;2024-01-30T04:27:48;28.30;;;16.98;;
61200;SDS011;47065;52.898;6.992;2024-01-30T04:30:14;27.10;;;17.65;;
61200;SDS011;47065;52.898;6.992;2024-01-30T04:32:40;25.23;;;16.52;;
61200;SDS011;47065;52.898;6.992;2024-01-30T04:35:05;29.90;;;18.55;;
61200;SDS011;47065;52.898;6.992;2024-01-30T04:37:31;26.05;;;18.30;;
61200;SDS011;47065;52.898;6.992;2024-01-30T04:39:57;28.95;;;16.85;;
61200;SDS011;47065;52.898;6.992;2024-01-30T04:42:23;28.52;;;18.10;;
61200;SDS011;47065;52.898;6.992;2024-01-30T04:44:49;27.50;;;16.98;;
61200;SDS011;47065;52.898;6.992;2024-01-30T04:47:15;24.63;;;17.95;;
61200;SDS011;47065;52.898;6.992;2024-01-30T04:49:40;26.45;;;17.00;;
61200;SDS011;47065;52.898;6.992;2024-01-30T04:52:06;26.77;;;17.58;;
61200;SDS011;47065;52.898;6.992;2024-01-30T04:54:33;26.98;;;17.95;;
61200;SDS011;47065;52.898;6.992;2024-01-30T04:56:59;53.80;;;19.95;;
61200;SDS011;47065;52.898;6.992;2024-01-30T04:59:25;33.17;;;18.48;;
61200;SDS011;47065;52.898;6.992;2024-01-30T05:01:51;28.02;;;18.23;;
61200;SDS011;47065;52.898;6.992;2024-01-30T05:04:16;29.55;;;18.77;;
61200;SDS011;47065;52.898;6.992;2024-01-30T05:06:42;30.45;;;18.30;;
61200;SDS011;47065;52.898;6.992;2024-01-30T05:09:08;24.90;;;17.85;;
61200;SDS011;47065;52.898;6.992;2024-01-30T05:11:37;27.65;;;17.88;;
61200;SDS011;47065;52.898;6.992;2024-01-30T05:14:04;30.98;;;19.55;;
61200;SDS011;47065;52.898;6.992;2024-01-30T05:16:30;34.10;;;19.83;;
61200;SDS011;47065;52.898;6.992;2024-01-30T05:18:57;27.23;;;18.33;;
61200;SDS011;47065;52.898;6.992;2024-01-30T05:21:23;33.80;;;19.98;;
61200;SDS011;47065;52.898;6.992;2024-01-30T05:23:48;29.67;;;19.00;;
61200;SDS011;47065;52.898;6.992;2024-01-30T05:26:14;24.83;;;17.60;;
61200;SDS011;47065;52.898;6.992;2024-01-30T05:28:40;27.88;;;19.38;;
61200;SDS011;47065;52.898;6.992;2024-01-30T05:31:05;28.38;;;19.33;;
61200;SDS011;47065;52.898;6.992;2024-01-30T05:33:31;30.33;;;18.60;;
61200;SDS011;47065;52.898;6.992;2024-01-30T05:35:57;28.50;;;18.40;;
61200;SDS011;47065;52.898;6.992;2024-01-30T05:38:22;31.02;;;18.52;;
61200;SDS011;47065;52.898;6.992;2024-01-30T05:40:48;24.75;;;17.60;;
61200;SDS011;47065;52.898;6.992;2024-01-30T05:43:14;34.30;;;19.23;;
61200;SDS011;47065;52.898;6.992;2024-01-30T05:45:39;25.15;;;16.92;;
61200;SDS011;47065;52.898;6.992;2024-01-30T05:48:05;23.92;;;17.38;;
61200;SDS011;47065;52.898;6.992;2024-01-30T05:50:31;28.65;;;19.27;;
61200;SDS011;47065;52.898;6.992;2024-01-30T05:52:56;28.45;;;16.92;;
61200;SDS011;47065;52.898;6.992;2024-01-30T05:55:22;27.15;;;18.52;;
61200;SDS011;47065;52.898;6.992;2024-01-30T05:57:48;26.52;;;18.92;;
61200;SDS011;47065;52.898;6.992;2024-01-30T06:00:13;28.08;;;17.80;;
61200;SDS011;47065;52.898;6.992;2024-01-30T06:02:39;26.67;;;17.30;;
61200;SDS011;47065;52.898;6.992;2024-01-30T06:05:05;24.70;;;16.92;;
61200;SDS011;47065;52.898;6.992;2024-01-30T06:07:31;25.02;;;16.15;;
61200;SDS011;47065;52.898;6.992;2024-01-30T06:09:57;29.92;;;17.17;;
61200;SDS011;47065;52.898;6.992;2024-01-30T06:12:22;36.65;;;19.35;;
61200;SDS011;47065;52.898;6.992;2024-01-30T06:14:48;28.73;;;17.33;;
61200;SDS011;47065;52.898;6.992;2024-01-30T06:17:14;23.90;;;16.60;;
61200;SDS011;47065;52.898;6.992;2024-01-30T06:19:39;28.45;;;19.80;;
61200;SDS011;47065;52.898;6.992;2024-01-30T06:22:05;28.48;;;17.35;;
61200;SDS011;47065;52.898;6.992;2024-01-30T06:24:31;35.75;;;17.98;;
61200;SDS011;47065;52.898;6.992;2024-01-30T06:26:56;26.27;;;17.17;;
61200;SDS011;47065;52.898;6.992;2024-01-30T06:29:22;24.95;;;16.30;;
61200;SDS011;47065;52.898;6.992;2024-01-30T06:31:49;23.33;;;15.27;;
61200;SDS011;47065;52.898;6.992;2024-01-30T06:34:15;22.58;;;15.02;;
61200;SDS011;47065;52.898;6.992;2024-01-30T06:36:41;23.98;;;14.88;;
61200;SDS011;47065;52.898;6.992;2024-01-30T06:39:06;22.63;;;14.57;;
61200;SDS011;47065;52.898;6.992;2024-01-30T06:41:32;24.40;;;15.20;;
61200;SDS011;47065;52.898;6.992;2024-01-30T06:43:58;22.88;;;17.25;;
61200;SDS011;47065;52.898;6.992;2024-01-30T06:46:24;20.92;;;14.07;;
61200;SDS011;47065;52.898;6.992;2024-01-30T06:48:50;22.83;;;12.50;;
61200;SDS011;47065;52.898;6.992;2024-01-30T06:51:15;22.13;;;15.57;;
61200;SDS011;47065;52.898;6.992;2024-01-30T06:53:41;21.95;;;14.57;;
61200;SDS011;47065;52.898;6.992;2024-01-30T06:56:06;18.98;;;12.60;;
61200;SDS011;47065;52.898;6.992;2024-01-30T06:58:32;20.42;;;13.52;;
61200;SDS011;47065;52.898;6.992;2024-01-30T07:00:58;18.40;;;12.32;;
61200;SDS011;47065;52.898;6.992;2024-01-30T07:03:24;21.23;;;13.70;;
61200;SDS011;47065;52.898;6.992;2024-01-30T07:05:49;17.02;;;12.45;;
61200;SDS011;47065;52.898;6.992;2024-01-30T07:08:18;21.52;;;12.57;;
61200;SDS011;47065;52.898;6.992;2024-01-30T07:10:43;19.45;;;13.35;;
61200;SDS011;47065;52.898;6.992;2024-01-30T07:13:10;19.60;;;12.80;;
61200;SDS011;47065;52.898;6.992;2024-01-30T07:15:36;21.13;;;14.07;;
61200;SDS011;47065;52.898;6.992;2024-01-30T07:18:02;21.40;;;13.15;;
61200;SDS011;47065;52.898;6.992;2024-01-30T07:20:28;19.42;;;14.52;;
61200;SDS011;47065;52.898;6.992;2024-01-30T07:22:55;17.75;;;12.65;;
61200;SDS011;47065;52.898;6.992;2024-01-30T07:25:21;17.77;;;12.40;;
61200;SDS011;47065;52.898;6.992;2024-01-30T07:27:51;23.75;;;13.32;;
61200;SDS011;47065;52.898;6.992;2024-01-30T07:30:17;21.90;;;14.75;;
61200;SDS011;47065;52.898;6.992;2024-01-30T07:32:43;20.77;;;13.70;;
61200;SDS011;47065;52.898;6.992;2024-01-30T07:35:09;21.75;;;14.90;;
61200;SDS011;47065;52.898;6.992;2024-01-30T07:37:36;24.27;;;14.90;;
61200;SDS011;47065;52.898;6.992;2024-01-30T07:40:02;20.73;;;14.30;;
61200;SDS011;47065;52.898;6.992;2024-01-30T07:42:28;22.85;;;14.48;;
61200;SDS011;47065;52.898;6.992;2024-01-30T07:44:54;22.00;;;14.48;;
61200;SDS011;47065;52.898;6.992;2024-01-30T07:47:19;20.90;;;14.25;;
61200;SDS011;47065;52.898;6.992;2024-01-30T07:49:46;22.63;;;15.05;;
61200;SDS011;47065;52.898;6.992;2024-01-30T07:52:12;25.95;;;16.83;;
61200;SDS011;47065;52.898;6.992;2024-01-30T07:54:50;24.73;;;15.95;;
61200;SDS011;47065;52.898;6.992;2024-01-30T07:57:16;25.27;;;16.42;;
61200;SDS011;47065;52.898;6.992;2024-01-30T07:59:43;25.77;;;16.73;;
61200;SDS011;47065;52.898;6.992;2024-01-30T08:02:09;25.17;;;17.40;;
61200;SDS011;47065;52.898;6.992;2024-01-30T08:04:38;23.60;;;16.55;;
61200;SDS011;47065;52.898;6.992;2024-01-30T08:07:04;31.58;;;20.88;;
61200;SDS011;47065;52.898;6.992;2024-01-30T08:09:30;26.20;;;16.70;;
61200;SDS011;47065;52.898;6.992;2024-01-30T08:11:55;24.05;;;17.65;;
61200;SDS011;47065;52.898;6.992;2024-01-30T08:14:21;21.02;;;14.43;;
61200;SDS011;47065;52.898;6.992;2024-01-30T08:16:47;19.75;;;13.52;;
61200;SDS011;47065;52.898;6.992;2024-01-30T08:19:14;19.63;;;13.55;;
61200;SDS011;47065;52.898;6.992;2024-01-30T08:21:40;19.02;;;12.30;;
61200;SDS011;47065;52.898;6.992;2024-01-30T08:24:06;18.88;;;12.45;;
61200;SDS011;47065;52.898;6.992;2024-01-30T08:26:32;19.73;;;12.48;;
61200;SDS011;47065;52.898;6.992;2024-01-30T08:28:58;21.83;;;12.43;;
61200;SDS011;47065;52.898;6.992;2024-01-30T08:31:24;18.38;;;11.90;;
61200;SDS011;47065;52.898;6.992;2024-01-30T08:33:50;22.33;;;12.98;;
61200;SDS011;47065;52.898;6.992;2024-01-30T08:36:16;18.83;;;11.63;;
61200;SDS011;47065;52.898;6.992;2024-01-30T08:38:42;19.02;;;12.93;;
61200;SDS011;47065;52.898;6.992;2024-01-30T08:41:08;15.30;;;10.63;;
61200;SDS011;47065;52.898;6.992;2024-01-30T08:43:34;15.35;;;10.82;;
61200;SDS011;47065;52.898;6.992;2024-01-30T08:46:00;19.48;;;13.07;;
61200;SDS011;47065;52.898;6.992;2024-01-30T08:48:26;21.45;;;13.48;;
61200;SDS011;47065;52.898;6.992;2024-01-30T08:50:52;35.42;;;21.63;;
61200;SDS011;47065;52.898;6.992;2024-01-30T08:53:18;20.67;;;14.32;;
61200;SDS011;47065;52.898;6.992;2024-01-30T08:55:44;38.90;;;26.00;;
61200;SDS011;47065;52.898;6.992;2024-01-30T08:58:10;38.60;;;28.05;;
61200;SDS011;47065;52.898;6.992;2024-01-30T09:00:35;20.95;;;13.30;;
61200;SDS011;47065;52.898;6.992;2024-01-30T09:03:01;22.67;;;14.70;;
61200;SDS011;47065;52.898;6.992;2024-01-30T09:05:27;18.10;;;13.27;;
61200;SDS011;47065;52.898;6.992;2024-01-30T09:07:52;89.50;;;80.20;;
61200;SDS011;47065;52.898;6.992;2024-01-30T09:10:18;42.50;;;35.97;;
61200;SDS011;47065;52.898;6.992;2024-01-30T09:12:45;23.42;;;17.75;;
61200;SDS011;47065;52.898;6.992;2024-01-30T09:15:11;39.88;;;28.48;;
61200;SDS011;47065;52.898;6.992;2024-01-30T09:17:37;45.67;;;29.83;;
61200;SDS011;47065;52.898;6.992;2024-01-30T09:20:03;41.47;;;27.02;;
61200;SDS011;47065;52.898;6.992;2024-01-30T09:22:29;30.73;;;22.20;;
61200;SDS011;47065;52.898;6.992;2024-01-30T09:24:55;31.65;;;22.50;;
61200;SDS011;47065;52.898;6.992;2024-01-30T09:27:20;28.10;;;19.90;;
61200;SDS011;47065;52.898;6.992;2024-01-30T09:29:46;31.20;;;21.42;;
61200;SDS011;47065;52.898;6.992;2024-01-30T09:32:12;55.95;;;33.75;;
61200;SDS011;47065;52.898;6.992;2024-01-30T09:34:37;36.83;;;24.95;;
61200;SDS011;47065;52.898;6.992;2024-01-30T09:37:04;46.65;;;30.88;;
61200;SDS011;47065;52.898;6.992;2024-01-30T09:39:30;29.10;;;19.27;;
61200;SDS011;47065;52.898;6.992;2024-01-30T09:42:02;28.42;;;18.00;;
61200;SDS011;47065;52.898;6.992;2024-01-30T09:44:43;55.83;;;36.28;;
61200;SDS011;47065;52.898;6.992;2024-01-30T09:47:09;26.10;;;18.55;;
61200;SDS011;47065;52.898;6.992;2024-01-30T09:49:35;23.75;;;12.93;;
61200;SDS011;47065;52.898;6.992;2024-01-30T09:52:02;15.98;;;10.32;;
61200;SDS011;47065;52.898;6.992;2024-01-30T09:54:31;15.88;;;9.70;;
61200;SDS011;47065;52.898;6.992;2024-01-30T09:56:57;12.82;;;9.63;;
61200;SDS011;47065;52.898;6.992;2024-01-30T09:59:23;15.98;;;9.57;;
61200;SDS011;47065;52.898;6.992;2024-01-30T10:01:50;14.80;;;10.30;;
61200;SDS011;47065;52.898;6.992;2024-01-30T10:04:16;16.00;;;9.65;;
61200;SDS011;47065;52.898;6.992;2024-01-30T10:06:42;15.55;;;9.10;;
61200;SDS011;47065;52.898;6.992;2024-01-30T10:09:08;14.95;;;9.50;;
61200;SDS011;47065;52.898;6.992;2024-01-30T10:11:34;15.98;;;9.82;;
61200;SDS011;47065;52.898;6.992;2024-01-30T10:14:01;14.63;;;9.52;;
61200;SDS011;47065;52.898;6.992;2024-01-30T10:16:27;16.52;;;9.70;;
61200;SDS011;47065;52.898;6.992;2024-01-30T10:18:53;13.43;;;8.85;;
61200;SDS011;47065;52.898;6.992;2024-01-30T10:21:19;17.80;;;9.95;;
61200;SDS011;47065;52.898;6.992;2024-01-30T10:23:44;15.38;;;9.45;;
61200;SDS011;47065;52.898;6.992;2024-01-30T10:26:10;12.52;;;8.80;;
61200;SDS011;47065;52.898;6.992;2024-01-30T10:28:36;12.90;;;9.45;;
61200;SDS011;47065;52.898;6.992;2024-01-30T10:31:02;15.15;;;9.45;;
61200;SDS011;47065;52.898;6.992;2024-01-30T10:33:30;15.50;;;9.38;;
61200;SDS011;47065;52.898;6.992;2024-01-30T10:35:59;14.95;;;10.02;;
61200;SDS011;47065;52.898;6.992;2024-01-30T10:38:28;15.98;;;10.32;;
61200;SDS011;47065;52.898;6.992;2024-01-30T10:40:56;16.15;;;10.27;;
61200;SDS011;47065;52.898;6.992;2024-01-30T10:43:22;15.68;;;9.65;;
61200;SDS011;47065;52.898;6.992;2024-01-30T10:45:55;16.58;;;9.20;;
61200;SDS011;47065;52.898;6.992;2024-01-30T10:48:28;18.52;;;10.38;;
61200;SDS011;47065;52.898;6.992;2024-01-30T10:50:57;14.70;;;9.40;;
61200;SDS011;47065;52.898;6.992;2024-01-30T10:53:25;16.73;;;9.68;;
61200;SDS011;47065;52.898;6.992;2024-01-30T10:55:52;19.73;;;10.57;;
61200;SDS011;47065;52.898;6.992;2024-01-30T10:58:19;16.48;;;10.82;;
61200;SDS011;47065;52.898;6.992;2024-01-30T11:00:45;27.05;;;13.80;;
61200;SDS011;47065;52.898;6.992;2024-01-30T11:03:12;17.15;;;10.90;;
61200;SDS011;47065;52.898;6.992;2024-01-30T11:05:40;17.40;;;11.52;;
61200;SDS011;47065;52.898;6.992;2024-01-30T11:08:12;15.27;;;9.13;;
61200;SDS011;47065;52.898;6.992;2024-01-30T11:10:46;16.73;;;9.40;;
61200;SDS011;47065;52.898;6.992;2024-01-30T11:13:13;15.15;;;9.77;;
61200;SDS011;47065;52.898;6.992;2024-01-30T11:15:40;19.58;;;9.80;;
61200;SDS011;47065;52.898;6.992;2024-01-30T11:18:05;14.32;;;9.55;;
61200;SDS011;47065;52.898;6.992;2024-01-30T11:20:31;13.25;;;9.32;;
61200;SDS011;47065;52.898;6.992;2024-01-30T11:22:57;13.23;;;9.88;;
61200;SDS011;47065;52.898;6.992;2024-01-30T11:25:24;16.80;;;8.38;;
61200;SDS011;47065;52.898;6.992;2024-01-30T11:27:51;12.93;;;8.25;;
61200;SDS011;47065;52.898;6.992;2024-01-30T11:30:28;12.27;;;8.63;;
61200;SDS011;47065;52.898;6.992;2024-01-30T11:35:33;17.15;;;10.05;;
61200;SDS011;47065;52.898;6.992;2024-01-30T11:38:10;16.00;;;8.45;;
61200;SDS011;47065;52.898;6.992;2024-01-30T11:40:38;14.20;;;10.23;;
61200;SDS011;47065;52.898;6.992;2024-01-30T11:43:05;13.55;;;9.15;;
61200;SDS011;47065;52.898;6.992;2024-01-30T11:45:32;16.02;;;9.38;;
61200;SDS011;47065;52.898;6.992;2024-01-30T11:47:58;27.25;;;9.80;;
61200;SDS011;47065;52.898;6.992;2024-01-30T11:50:30;18.73;;;9.15;;
61200;SDS011;47065;52.898;6.992;2024-01-30T11:52:57;16.80;;;10.00;;
61200;SDS011;47065;52.898;6.992;2024-01-30T11:55:24;14.35;;;8.77;;
61200;SDS011;47065;52.898;6.992;2024-01-30T11:57:50;16.15;;;9.32;;
61200;SDS011;47065;52.898;6.992;2024-01-30T12:00:16;14.13;;;8.60;;
61200;SDS011;47065;52.898;6.992;2024-01-30T12:02:52;20.20;;;9.70;;
61200;SDS011;47065;52.898;6.992;2024-01-30T12:05:22;16.33;;;9.60;;
61200;SDS011;47065;52.898;6.992;2024-01-30T12:07:49;15.85;;;8.75;;
61200;SDS011;47065;52.898;6.992;2024-01-30T12:10:14;18.60;;;9.02;;
61200;SDS011;47065;52.898;6.992;2024-01-30T12:12:47;14.63;;;10.38;;
61200;SDS011;47065;52.898;6.992;2024-01-30T12:15:15;24.73;;;14.20;;
61200;SDS011;47065;52.898;6.992;2024-01-30T12:17:42;19.48;;;10.30;;
61200;SDS011;47065;52.898;6.992;2024-01-30T12:20:11;13.68;;;8.70;;
61200;SDS011;47065;52.898;6.992;2024-01-30T12:22:38;14.27;;;9.40;;
61200;SDS011;47065;52.898;6.992;2024-01-30T12:25:09;16.75;;;9.50;;
61200;SDS011;47065;52.898;6.992;2024-01-30T12:27:35;16.80;;;9.93;;
61200;SDS011;47065;52.898;6.992;2024-01-30T12:30:04;16.38;;;9.88;;
61200;SDS011;47065;52.898;6.992;2024-01-30T12:32:40;18.73;;;10.75;;
61200;SDS011;47065;52.898;6.992;2024-01-30T12:35:11;12.80;;;9.60;;
61200;SDS011;47065;52.898;6.992;2024-01-30T12:37:37;18.73;;;10.07;;
61200;SDS011;47065;52.898;6.992;2024-01-30T12:40:04;13.95;;;8.93;;
61200;SDS011;47065;52.898;6.992;2024-01-30T12:42:31;16.70;;;10.05;;
61200;SDS011;47065;52.898;6.992;2024-01-30T12:44:57;13.95;;;9.80;;
61200;SDS011;47065;52.898;6.992;2024-01-30T12:47:23;14.80;;;9.25;;
61200;SDS011;47065;52.898;6.992;2024-01-30T12:49:49;16.27;;;9.32;;
61200;SDS011;47065;52.898;6.992;2024-01-30T12:52:18;15.02;;;8.88;;
61200;SDS011;47065;52.898;6.992;2024-01-30T12:54:45;19.27;;;10.02;;
61200;SDS011;47065;52.898;6.992;2024-01-30T12:57:11;16.30;;;10.30;;
61200;SDS011;47065;52.898;6.992;2024-01-30T12:59:36;12.43;;;9.18;;
61200;SDS011;47065;52.898;6.992;2024-01-30T13:02:02;16.05;;;8.40;;
61200;SDS011;47065;52.898;6.992;2024-01-30T13:04:28;16.00;;;8.02;;
61200;SDS011;47065;52.898;6.992;2024-01-30T13:06:54;14.45;;;8.55;;
61200;SDS011;47065;52.898;6.992;2024-01-30T13:09:20;20.92;;;9.90;;
61200;SDS011;47065;52.898;6.992;2024-01-30T13:11:46;19.83;;;9.60;;
61200;SDS011;47065;52.898;6.992;2024-01-30T13:14:12;10.45;;;6.38;;
61200;SDS011;47065;52.898;6.992;2024-01-30T13:16:38;12.50;;;6.88;;
61200;SDS011;47065;52.898;6.992;2024-01-30T13:19:03;17.83;;;7.40;;
61200;SDS011;47065;52.898;6.992;2024-01-30T13:21:29;9.90;;;6.28;;
61200;SDS011;47065;52.898;6.992;2024-01-30T13:23:54;13.57;;;7.00;;
61200;SDS011;47065;52.898;6.992;2024-01-30T13:26:20;8.82;;;6.47;;
61200;SDS011;47065;52.898;6.992;2024-01-30T13:28:47;12.60;;;6.65;;
61200;SDS011;47065;52.898;6.992;2024-01-30T13:31:13;11.60;;;5.80;;
61200;SDS011;47065;52.898;6.992;2024-01-30T13:33:39;13.25;;;6.40;;
61200;SDS011;47065;52.898;6.992;2024-01-30T13:36:06;12.88;;;7.45;;
61200;SDS011;47065;52.898;6.992;2024-01-30T13:38:35;15.35;;;6.32;;
61200;SDS011;47065;52.898;6.992;2024-01-30T13:41:01;13.23;;;6.07;;
61200;SDS011;47065;52.898;6.992;2024-01-30T13:43:27;7.40;;;5.07;;
61200;SDS011;47065;52.898;6.992;2024-01-30T13:45:53;7.63;;;4.97;;
61200;SDS011;47065;52.898;6.992;2024-01-30T13:48:19;6.25;;;3.65;;
61200;SDS011;47065;52.898;6.992;2024-01-30T13:50:45;7.63;;;3.88;;
61200;SDS011;47065;52.898;6.992;2024-01-30T13:53:11;11.15;;;3.25;;
61200;SDS011;47065;52.898;6.992;2024-01-30T13:55:37;4.80;;;3.03;;
61200;SDS011;47065;52.898;6.992;2024-01-30T13:58:04;6.07;;;3.78;;
61200;SDS011;47065;52.898;6.992;2024-01-30T14:00:30;6.93;;;3.53;;
61200;SDS011;47065;52.898;6.992;2024-01-30T14:02:56;7.65;;;4.03;;
61200;SDS011;47065;52.898;6.992;2024-01-30T14:05:23;5.95;;;3.90;;
61200;SDS011;47065;52.898;6.992;2024-01-30T14:07:49;6.93;;;3.45;;
61200;SDS011;47065;52.898;6.992;2024-01-30T14:10:16;5.72;;;4.13;;
61200;SDS011;47065;52.898;6.992;2024-01-30T14:12:42;5.35;;;3.33;;
61200;SDS011;47065;52.898;6.992;2024-01-30T14:15:09;5.28;;;3.40;;
61200;SDS011;47065;52.898;6.992;2024-01-30T14:17:35;4.07;;;2.90;;
61200;SDS011;47065;52.898;6.992;2024-01-30T14:20:01;3.88;;;3.20;;
61200;SDS011;47065;52.898;6.992;2024-01-30T14:22:30;6.68;;;3.67;;
61200;SDS011;47065;52.898;6.992;2024-01-30T14:24:56;8.27;;;3.72;;